Terminal Aerodrome Forecast
Issued by NWS Brownsville, TX

Home | Current Version | Previous Version | Text Only | Print | Product List | Glossary On
Versions: 1 2 3 4 5 6 7 8 9 10 11 12 13 14 15 16 17 18 19 20 21 22 23
000
FTUS44 KBRO 190500
TAFHRL
TAF
KHRL 190520Z 1906/2006 15005KT P6SM OVC060
     FM190900 16005KT P6SM VCSH OVC025
     FM192100 31010KT P6SM VCSH OVC035
     FM200000 36012KT P6SM OVC050
     FM200300 36010KT P6SM OVC025=

USA.gov is the U.S. government's official web portal to all federal, state and local government web resources and services.